sensor_id;sensor_type;location;lat;lon;timestamp;pressure;altitude;pressure_sealevel;temperature;humidity
12763;BME280;6445;52.490;13.378;2022-07-29T00:01:44;52023.97;;;-146.10;43.76
12763;BME280;6445;52.490;13.378;2022-07-29T00:04:09;52003.97;;;-146.10;43.40
12763;BME280;6445;52.490;13.378;2022-07-29T00:06:35;52003.97;;;-146.10;43.62
12763;BME280;6445;52.490;13.378;2022-07-29T00:09:00;52011.97;;;-146.10;44.01
12763;BME280;6445;52.490;13.378;2022-07-29T00:11:25;52005.97;;;-146.10;44.16
12763;BME280;6445;52.490;13.378;2022-07-29T00:13:50;52003.97;;;-146.10;44.40
12763;BME280;6445;52.490;13.378;2022-07-29T00:16:16;52007.97;;;-146.10;44.45
12763;BME280;6445;52.490;13.378;2022-07-29T00:18:41;51991.97;;;-146.10;44.42
12763;BME280;6445;52.490;13.378;2022-07-29T00:21:06;51993.97;;;-146.10;44.67
12763;BME280;6445;52.490;13.378;2022-07-29T00:23:31;52015.97;;;-146.10;44.59
12763;BME280;6445;52.490;13.378;2022-07-29T00:25:57;52001.97;;;-146.10;44.67
12763;BME280;6445;52.490;13.378;2022-07-29T00:28:22;52009.97;;;-146.10;44.84
12763;BME280;6445;52.490;13.378;2022-07-29T00:30:47;52007.97;;;-146.10;44.73
12763;BME280;6445;52.490;13.378;2022-07-29T00:33:12;52017.97;;;-146.10;44.89
12763;BME280;6445;52.490;13.378;2022-07-29T00:35:38;51999.97;;;-146.10;45.06
12763;BME280;6445;52.490;13.378;2022-07-29T00:38:14;51993.97;;;-146.10;45.15
12763;BME280;6445;52.490;13.378;2022-07-29T00:40:40;51985.97;;;-146.10;45.24
12763;BME280;6445;52.490;13.378;2022-07-29T00:43:06;52011.97;;;-146.10;45.50
12763;BME280;6445;52.490;13.378;2022-07-29T00:45:32;51993.97;;;-146.10;45.58
12763;BME280;6445;52.490;13.378;2022-07-29T00:47:58;52013.97;;;-146.10;45.68
12763;BME280;6445;52.490;13.378;2022-07-29T00:50:23;51995.97;;;-146.10;45.85
12763;BME280;6445;52.490;13.378;2022-07-29T00:52:50;51997.97;;;-146.10;46.05
12763;BME280;6445;52.490;13.378;2022-07-29T00:55:15;52005.97;;;-146.10;45.87
12763;BME280;6445;52.490;13.378;2022-07-29T00:57:42;51991.97;;;-146.10;46.18
12763;BME280;6445;52.490;13.378;2022-07-29T01:00:10;51987.97;;;-146.10;46.37
12763;BME280;6445;52.490;13.378;2022-07-29T01:02:36;52007.97;;;-146.10;46.42
12763;BME280;6445;52.490;13.378;2022-07-29T01:05:03;52013.97;;;-146.10;46.22
12763;BME280;6445;52.490;13.378;2022-07-29T01:07:30;51995.97;;;-146.10;46.11
12763;BME280;6445;52.490;13.378;2022-07-29T01:09:57;52007.97;;;-146.10;46.47
12763;BME280;6445;52.490;13.378;2022-07-29T01:12:25;51967.97;;;-146.10;46.51
12763;BME280;6445;52.490;13.378;2022-07-29T01:14:52;52005.97;;;-146.10;46.68
12763;BME280;6445;52.490;13.378;2022-07-29T01:20:02;52023.97;;;-146.10;46.69
12763;BME280;6445;52.490;13.378;2022-07-29T01:25:19;51997.97;;;-146.10;46.96
12763;BME280;6445;52.490;13.378;2022-07-29T01:28:53;52011.97;;;-146.10;47.07
12763;BME280;6445;52.490;13.378;2022-07-29T01:30:47;51999.97;;;-146.10;47.08
12763;BME280;6445;52.490;13.378;2022-07-29T01:33:17;51981.97;;;-146.10;47.29
12763;BME280;6445;52.490;13.378;2022-07-29T01:36:07;52009.97;;;-146.10;47.31
12763;BME280;6445;52.490;13.378;2022-07-29T01:38:35;51993.97;;;-146.10;47.23
12763;BME280;6445;52.490;13.378;2022-07-29T01:41:06;52015.97;;;-146.10;47.16
12763;BME280;6445;52.490;13.378;2022-07-29T01:43:40;51997.97;;;-146.10;47.15
12763;BME280;6445;52.490;13.378;2022-07-29T01:46:11;51997.97;;;-146.10;47.21
12763;BME280;6445;52.490;13.378;2022-07-29T01:48:48;51993.97;;;-146.10;47.46
12763;BME280;6445;52.490;13.378;2022-07-29T01:51:19;51983.97;;;-146.10;47.53
12763;BME280;6445;52.490;13.378;2022-07-29T01:54:05;51983.97;;;-146.10;47.95
12763;BME280;6445;52.490;13.378;2022-07-29T01:56:32;51979.97;;;-146.10;48.14
12763;BME280;6445;52.490;13.378;2022-07-29T01:59:01;51983.97;;;-146.10;48.20
12763;BME280;6445;52.490;13.378;2022-07-29T02:01:28;51967.97;;;-146.10;48.22
12763;BME280;6445;52.490;13.378;2022-07-29T02:03:56;51977.97;;;-146.10;48.26
12763;BME280;6445;52.490;13.378;2022-07-29T02:06:23;51957.97;;;-146.10;48.45
12763;BME280;6445;52.490;13.378;2022-07-29T02:08:52;51969.97;;;-146.10;48.68
12763;BME280;6445;52.490;13.378;2022-07-29T02:11:18;51959.97;;;-146.10;48.28
12763;BME280;6445;52.490;13.378;2022-07-29T02:13:44;51971.97;;;-146.10;48.66
12763;BME280;6445;52.490;13.378;2022-07-29T02:16:10;51979.97;;;-146.10;48.46
12763;BME280;6445;52.490;13.378;2022-07-29T02:18:39;51983.97;;;-146.10;48.35
12763;BME280;6445;52.490;13.378;2022-07-29T02:21:06;51999.97;;;-146.10;48.33
12763;BME280;6445;52.490;13.378;2022-07-29T02:23:32;51959.97;;;-146.10;48.52
12763;BME280;6445;52.490;13.378;2022-07-29T02:25:59;51973.97;;;-146.10;48.33
12763;BME280;6445;52.490;13.378;2022-07-29T02:28:27;51995.97;;;-146.10;48.21
12763;BME280;6445;52.490;13.378;2022-07-29T02:30:57;51977.97;;;-146.10;48.28
12763;BME280;6445;52.490;13.378;2022-07-29T02:33:23;51975.97;;;-146.10;48.27
12763;BME280;6445;52.490;13.378;2022-07-29T02:35:50;51977.97;;;-146.10;48.30
12763;BME280;6445;52.490;13.378;2022-07-29T02:38:16;51985.97;;;-146.10;48.29
12763;BME280;6445;52.490;13.378;2022-07-29T02:41:05;51985.97;;;-146.10;48.37
12763;BME280;6445;52.490;13.378;2022-07-29T02:43:33;51983.97;;;-146.10;48.36
12763;BME280;6445;52.490;13.378;2022-07-29T02:46:00;52003.97;;;-146.10;48.24
12763;BME280;6445;52.490;13.378;2022-07-29T02:48:34;51971.97;;;-146.10;48.36
12763;BME280;6445;52.490;13.378;2022-07-29T02:51:06;51993.97;;;-146.10;48.36
12763;BME280;6445;52.490;13.378;2022-07-29T02:53:33;51985.97;;;-146.10;48.38
12763;BME280;6445;52.490;13.378;2022-07-29T02:56:04;51981.97;;;-146.10;48.47
12763;BME280;6445;52.490;13.378;2022-07-29T02:58:33;52007.97;;;-146.10;48.22
12763;BME280;6445;52.490;13.378;2022-07-29T03:01:01;52019.97;;;-146.10;48.19
12763;BME280;6445;52.490;13.378;2022-07-29T03:03:31;51991.97;;;-146.10;48.22
12763;BME280;6445;52.490;13.378;2022-07-29T03:05:59;51977.97;;;-146.10;48.25
12763;BME280;6445;52.490;13.378;2022-07-29T03:08:26;51989.97;;;-146.10;48.50
12763;BME280;6445;52.490;13.378;2022-07-29T03:10:53;51959.97;;;-146.10;48.68
12763;BME280;6445;52.490;13.378;2022-07-29T03:13:19;51991.97;;;-146.10;48.17
12763;BME280;6445;52.490;13.378;2022-07-29T03:15:45;51967.97;;;-146.10;48.08
12763;BME280;6445;52.490;13.378;2022-07-29T03:18:11;51961.97;;;-146.10;48.28
12763;BME280;6445;52.490;13.378;2022-07-29T03:20:37;51995.97;;;-146.10;48.20
12763;BME280;6445;52.490;13.378;2022-07-29T03:23:03;51995.97;;;-146.10;48.09
12763;BME280;6445;52.490;13.378;2022-07-29T03:25:29;52017.97;;;-146.10;48.33
12763;BME280;6445;52.490;13.378;2022-07-29T03:27:54;52001.97;;;-146.10;48.00
12763;BME280;6445;52.490;13.378;2022-07-29T03:30:19;51967.97;;;-146.10;48.21
12763;BME280;6445;52.490;13.378;2022-07-29T03:32:45;51991.97;;;-146.10;48.26
12763;BME280;6445;52.490;13.378;2022-07-29T03:35:10;51981.97;;;-146.10;48.16
12763;BME280;6445;52.490;13.378;2022-07-29T03:37:35;51971.97;;;-146.10;48.18
12763;BME280;6445;52.490;13.378;2022-07-29T03:40:03;51987.97;;;-146.10;48.41
12763;BME280;6445;52.490;13.378;2022-07-29T03:42:31;51981.97;;;-146.10;48.11
12763;BME280;6445;52.490;13.378;2022-07-29T03:45:00;52003.97;;;-146.10;48.12
12763;BME280;6445;52.490;13.378;2022-07-29T03:47:28;51989.97;;;-146.10;48.22
12763;BME280;6445;52.490;13.378;2022-07-29T03:49:59;51969.97;;;-146.10;48.41
12763;BME280;6445;52.490;13.378;2022-07-29T03:52:25;51987.97;;;-146.10;48.42
12763;BME280;6445;52.490;13.378;2022-07-29T03:54:50;51975.97;;;-146.10;48.22
12763;BME280;6445;52.490;13.378;2022-07-29T03:57:16;51999.97;;;-146.10;48.17
12763;BME280;6445;52.490;13.378;2022-07-29T03:59:44;51983.97;;;-146.10;47.87
12763;BME280;6445;52.490;13.378;2022-07-29T04:02:11;51987.97;;;-146.10;47.91
12763;BME280;6445;52.490;13.378;2022-07-29T04:04:37;52001.97;;;-146.10;48.12
12763;BME280;6445;52.490;13.378;2022-07-29T04:07:03;51983.97;;;-146.10;48.03
12763;BME280;6445;52.490;13.378;2022-07-29T04:09:29;52011.97;;;-146.10;47.82
12763;BME280;6445;52.490;13.378;2022-07-29T04:11:54;51989.97;;;-146.10;47.47
12763;BME280;6445;52.490;13.378;2022-07-29T04:14:19;51991.97;;;-146.10;47.55
12763;BME280;6445;52.490;13.378;2022-07-29T04:16:45;52017.97;;;-146.10;47.53
12763;BME280;6445;52.490;13.378;2022-07-29T04:19:10;52037.97;;;-146.10;47.10
12763;BME280;6445;52.490;13.378;2022-07-29T04:21:40;52021.97;;;-146.10;47.30
12763;BME280;6445;52.490;13.378;2022-07-29T04:24:06;51995.97;;;-146.10;47.46
12763;BME280;6445;52.490;13.378;2022-07-29T04:26:31;52003.97;;;-146.10;46.87
12763;BME280;6445;52.490;13.378;2022-07-29T04:28:56;51993.97;;;-146.10;47.20
12763;BME280;6445;52.490;13.378;2022-07-29T04:31:22;52017.97;;;-146.10;47.20
12763;BME280;6445;52.490;13.378;2022-07-29T04:33:47;52025.97;;;-146.10;47.25
12763;BME280;6445;52.490;13.378;2022-07-29T04:36:12;52013.97;;;-146.10;47.20
12763;BME280;6445;52.490;13.378;2022-07-29T04:38:38;52007.97;;;-146.10;47.11
12763;BME280;6445;52.490;13.378;2022-07-29T04:41:04;52021.97;;;-146.10;46.75
12763;BME280;6445;52.490;13.378;2022-07-29T04:43:30;51985.97;;;-146.10;46.97
12763;BME280;6445;52.490;13.378;2022-07-29T04:45:55;51997.97;;;-146.10;47.17
12763;BME280;6445;52.490;13.378;2022-07-29T04:48:20;52017.97;;;-146.10;47.21
12763;BME280;6445;52.490;13.378;2022-07-29T04:53:11;51999.97;;;-146.10;47.03
12763;BME280;6445;52.490;13.378;2022-07-29T04:55:36;52003.97;;;-146.10;47.09
12763;BME280;6445;52.490;13.378;2022-07-29T04:58:01;52003.97;;;-146.10;47.41
12763;BME280;6445;52.490;13.378;2022-07-29T05:00:27;51993.97;;;-146.10;46.99
12763;BME280;6445;52.490;13.378;2022-07-29T05:02:52;52015.97;;;-146.10;46.90
12763;BME280;6445;52.490;13.378;2022-07-29T05:05:18;52011.97;;;-146.10;46.81
12763;BME280;6445;52.490;13.378;2022-07-29T05:07:43;52015.97;;;-146.10;46.34
12763;BME280;6445;52.490;13.378;2022-07-29T05:10:08;52015.97;;;-146.10;46.49
12763;BME280;6445;52.490;13.378;2022-07-29T05:12:33;52015.97;;;-146.10;46.85
12763;BME280;6445;52.490;13.378;2022-07-29T05:14:59;52011.97;;;-146.10;46.30
12763;BME280;6445;52.490;13.378;2022-07-29T05:17:24;52007.97;;;-146.10;46.20
12763;BME280;6445;52.490;13.378;2022-07-29T05:19:49;52003.97;;;-146.10;46.24
12763;BME280;6445;52.490;13.378;2022-07-29T05:22:17;52029.97;;;-146.10;46.31
12763;BME280;6445;52.490;13.378;2022-07-29T05:24:42;52041.97;;;-146.10;46.10
12763;BME280;6445;52.490;13.378;2022-07-29T05:27:07;52019.97;;;-146.10;45.88
12763;BME280;6445;52.490;13.378;2022-07-29T05:29:33;52015.97;;;-146.10;45.86
12763;BME280;6445;52.490;13.378;2022-07-29T05:31:58;52011.97;;;-146.10;46.22
12763;BME280;6445;52.490;13.378;2022-07-29T05:34:42;52019.97;;;-146.10;46.21
12763;BME280;6445;52.490;13.378;2022-07-29T05:37:07;52009.97;;;-146.10;46.01
12763;BME280;6445;52.490;13.378;2022-07-29T05:39:32;52015.97;;;-146.10;45.88
12763;BME280;6445;52.490;13.378;2022-07-29T05:41:58;52013.97;;;-146.10;46.00
12763;BME280;6445;52.490;13.378;2022-07-29T05:44:23;52007.97;;;-146.10;46.26
12763;BME280;6445;52.490;13.378;2022-07-29T05:46:48;52011.97;;;-146.10;45.84
12763;BME280;6445;52.490;13.378;2022-07-29T05:49:13;52033.97;;;-146.10;45.66
12763;BME280;6445;52.490;13.378;2022-07-29T05:51:39;52043.97;;;-146.10;45.47
12763;BME280;6445;52.490;13.378;2022-07-29T05:54:04;52033.97;;;-146.10;45.24
12763;BME280;6445;52.490;13.378;2022-07-29T05:56:29;52053.97;;;-146.10;44.80
12763;BME280;6445;52.490;13.378;2022-07-29T05:58:54;52076.00;;;-146.10;43.63
12763;BME280;6445;52.490;13.378;2022-07-29T06:01:20;52078.00;;;-146.10;42.96
12763;BME280;6445;52.490;13.378;2022-07-29T06:03:45;52082.00;;;-146.10;41.65
12763;BME280;6445;52.490;13.378;2022-07-29T06:06:11;52142.00;;;-146.10;40.54
12763;BME280;6445;52.490;13.378;2022-07-29T06:08:37;52128.00;;;-146.10;41.31
12763;BME280;6445;52.490;13.378;2022-07-29T06:11:03;52102.00;;;-146.10;41.08
12763;BME280;6445;52.490;13.378;2022-07-29T06:13:29;52124.00;;;-146.10;40.36
12763;BME280;6445;52.490;13.378;2022-07-29T06:15:54;52142.00;;;-146.10;40.01
12763;BME280;6445;52.490;13.378;2022-07-29T06:18:19;52178.00;;;-146.10;39.64
12763;BME280;6445;52.490;13.378;2022-07-29T06:20:46;52166.00;;;-146.10;39.10
12763;BME280;6445;52.490;13.378;2022-07-29T06:23:11;52164.00;;;-146.10;39.61
12763;BME280;6445;52.490;13.378;2022-07-29T06:25:36;52140.00;;;-146.10;39.84
12763;BME280;6445;52.490;13.378;2022-07-29T06:28:02;52156.00;;;-146.10;39.86
12763;BME280;6445;52.490;13.378;2022-07-29T06:30:28;52138.00;;;-146.10;39.42
12763;BME280;6445;52.490;13.378;2022-07-29T06:32:54;52218.03;;;-146.10;39.04
12763;BME280;6445;52.490;13.378;2022-07-29T06:35:23;52152.00;;;-146.10;39.40
12763;BME280;6445;52.490;13.378;2022-07-29T06:37:48;52146.00;;;-146.10;39.93
12763;BME280;6445;52.490;13.378;2022-07-29T06:40:15;52130.00;;;-146.10;40.84
12763;BME280;6445;52.490;13.378;2022-07-29T06:42:59;52134.00;;;-146.10;40.83
12763;BME280;6445;52.490;13.378;2022-07-29T06:45:24;52134.00;;;-146.10;41.10
12763;BME280;6445;52.490;13.378;2022-07-29T06:47:49;52128.00;;;-146.10;40.90
12763;BME280;6445;52.490;13.378;2022-07-29T06:50:15;52148.00;;;-146.10;41.12
12763;BME280;6445;52.490;13.378;2022-07-29T06:52:40;52140.00;;;-146.10;40.97
12763;BME280;6445;52.490;13.378;2022-07-29T06:55:07;52118.00;;;-146.10;40.88
12763;BME280;6445;52.490;13.378;2022-07-29T06:57:33;52138.00;;;-146.10;40.50
12763;BME280;6445;52.490;13.378;2022-07-29T06:59:58;52112.00;;;-146.10;40.53
12763;BME280;6445;52.490;13.378;2022-07-29T07:02:24;52142.00;;;-146.10;40.13
12763;BME280;6445;52.490;13.378;2022-07-29T07:04:49;52144.00;;;-146.10;40.09
12763;BME280;6445;52.490;13.378;2022-07-29T07:07:14;52138.00;;;-146.10;39.67
12763;BME280;6445;52.490;13.378;2022-07-29T07:09:39;52306.06;;;-146.10;36.47
12763;BME280;6445;52.490;13.378;2022-07-29T07:12:05;52466.09;;;-146.10;33.39
12763;BME280;6445;52.490;13.378;2022-07-29T07:14:30;52466.09;;;-146.10;32.41
12763;BME280;6445;52.490;13.378;2022-07-29T07:16:56;52462.09;;;-146.10;32.15
12763;BME280;6445;52.490;13.378;2022-07-29T07:19:21;52432.09;;;-146.10;32.94
12763;BME280;6445;52.490;13.378;2022-07-29T07:21:46;52406.09;;;-146.10;33.55
12763;BME280;6445;52.490;13.378;2022-07-29T07:24:12;52416.09;;;-146.10;33.30
12763;BME280;6445;52.490;13.378;2022-07-29T07:26:37;52424.09;;;-146.10;33.51
12763;BME280;6445;52.490;13.378;2022-07-29T07:29:08;52458.09;;;-146.10;31.81
12763;BME280;6445;52.490;13.378;2022-07-29T07:31:33;52538.13;;;-146.10;31.02
12763;BME280;6445;52.490;13.378;2022-07-29T07:33:58;52634.19;;;-146.10;30.29
12763;BME280;6445;52.490;13.378;2022-07-29T07:36:24;52726.22;;;-146.10;29.16
12763;BME280;6445;52.490;13.378;2022-07-29T07:38:49;52742.22;;;-146.10;29.00
12763;BME280;6445;52.490;13.378;2022-07-29T07:41:14;52834.25;;;-146.10;28.23
12763;BME280;6445;52.490;13.378;2022-07-29T07:43:40;52880.28;;;-146.10;27.77
12763;BME280;6445;52.490;13.378;2022-07-29T07:46:22;53078.38;;;-146.10;26.50
12763;BME280;6445;52.490;13.378;2022-07-29T07:48:48;53204.44;;;-146.10;25.16
12763;BME280;6445;52.490;13.378;2022-07-29T07:51:14;53070.38;;;-146.10;25.85
12763;BME280;6445;52.490;13.378;2022-07-29T07:53:39;53160.44;;;-146.10;25.13
12763;BME280;6445;52.490;13.378;2022-07-29T07:56:05;53200.44;;;-146.10;25.29
12763;BME280;6445;52.490;13.378;2022-07-29T07:58:31;53252.47;;;-146.10;24.68
12763;BME280;6445;52.490;13.378;2022-07-29T08:00:56;53176.44;;;-146.10;25.29
12763;BME280;6445;52.490;13.378;2022-07-29T08:03:22;53292.50;;;-146.10;24.78
12763;BME280;6445;52.490;13.378;2022-07-29T08:05:47;53662.72;;;-146.10;23.63
12763;BME280;6445;52.490;13.378;2022-07-29T08:08:13;53306.50;;;-146.10;24.19
12763;BME280;6445;52.490;13.378;2022-07-29T08:10:38;53332.53;;;-146.10;24.17
12763;BME280;6445;52.490;13.378;2022-07-29T08:13:20;53362.53;;;-146.10;24.04
12763;BME280;6445;52.490;13.378;2022-07-29T08:15:46;53294.50;;;-146.10;24.61
12763;BME280;6445;52.490;13.378;2022-07-29T08:18:12;53102.41;;;-146.10;25.57
12763;BME280;6445;52.490;13.378;2022-07-29T08:20:37;53012.34;;;-146.10;26.03
12763;BME280;6445;52.490;13.378;2022-07-29T08:23:05;53030.34;;;-146.10;26.26
12763;BME280;6445;52.490;13.378;2022-07-29T08:25:40;53292.50;;;-146.10;24.75
12763;BME280;6445;52.490;13.378;2022-07-29T08:28:05;53230.47;;;-146.10;25.00
12763;BME280;6445;52.490;13.378;2022-07-29T08:30:31;53208.44;;;-146.10;24.58
12763;BME280;6445;52.490;13.378;2022-07-29T08:32:57;53054.38;;;-146.10;25.59
12763;BME280;6445;52.490;13.378;2022-07-29T08:35:24;53044.38;;;-146.10;25.50
12763;BME280;6445;52.490;13.378;2022-07-29T08:37:50;53016.34;;;-146.10;25.79
12763;BME280;6445;52.490;13.378;2022-07-29T08:40:15;53342.53;;;-146.10;24.13
12763;BME280;6445;52.490;13.378;2022-07-29T08:42:41;53524.63;;;-146.10;23.67
12763;BME280;6445;52.490;13.378;2022-07-29T08:45:07;53418.56;;;-146.10;23.41
12763;BME280;6445;52.490;13.378;2022-07-29T08:47:32;53324.50;;;-146.10;24.13
12763;BME280;6445;52.490;13.378;2022-07-29T08:49:58;53076.38;;;-146.10;24.83
12763;BME280;6445;52.490;13.378;2022-07-29T08:52:26;52908.28;;;-146.10;26.12
12763;BME280;6445;52.490;13.378;2022-07-29T08:54:52;52828.25;;;-146.10;27.09
12763;BME280;6445;52.490;13.378;2022-07-29T08:57:19;52654.19;;;-146.10;28.53
12763;BME280;6445;52.490;13.378;2022-07-29T08:59:46;52608.16;;;-146.10;28.95
12763;BME280;6445;52.490;13.378;2022-07-29T09:02:20;52582.16;;;-146.10;29.26
12763;BME280;6445;52.490;13.378;2022-07-29T09:04:47;52626.16;;;-146.10;29.07
12763;BME280;6445;52.490;13.378;2022-07-29T09:07:15;52588.16;;;-146.10;29.04
12763;BME280;6445;52.490;13.378;2022-07-29T09:09:41;52640.19;;;-146.10;28.70
12763;BME280;6445;52.490;13.378;2022-07-29T09:12:06;52752.22;;;-146.10;27.82
12763;BME280;6445;52.490;13.378;2022-07-29T09:14:33;53018.34;;;-146.10;25.94
12763;BME280;6445;52.490;13.378;2022-07-29T09:16:58;53192.44;;;-146.10;24.34
12763;BME280;6445;52.490;13.378;2022-07-29T09:21:49;53238.47;;;-146.10;24.60
12763;BME280;6445;52.490;13.378;2022-07-29T09:24:25;53232.47;;;-146.10;23.96
12763;BME280;6445;52.490;13.378;2022-07-29T09:26:50;53026.34;;;-146.10;25.52
12763;BME280;6445;52.490;13.378;2022-07-29T09:29:21;53458.59;;;-146.10;23.29
12763;BME280;6445;52.490;13.378;2022-07-29T09:31:49;53382.56;;;-146.10;23.08
12763;BME280;6445;52.490;13.378;2022-07-29T09:34:16;52976.31;;;-146.10;25.21
12763;BME280;6445;52.490;13.378;2022-07-29T09:36:47;52866.28;;;-146.10;26.47
12763;BME280;6445;52.490;13.378;2022-07-29T09:39:15;52782.25;;;-146.10;26.92
12763;BME280;6445;52.490;13.378;2022-07-29T09:41:49;52676.19;;;-146.10;27.54
12763;BME280;6445;52.490;13.378;2022-07-29T09:44:15;52630.16;;;-146.10;28.01
12763;BME280;6445;52.490;13.378;2022-07-29T09:46:53;52584.16;;;-146.10;28.21
12763;BME280;6445;52.490;13.378;2022-07-29T09:49:19;52608.16;;;-146.10;28.16
12763;BME280;6445;52.490;13.378;2022-07-29T09:51:44;52682.19;;;-146.10;27.33
12763;BME280;6445;52.490;13.378;2022-07-29T09:54:23;52632.19;;;-146.10;27.96
12763;BME280;6445;52.490;13.378;2022-07-29T09:56:49;52720.22;;;-146.10;27.55
12763;BME280;6445;52.490;13.378;2022-07-29T09:59:14;52830.25;;;-146.10;26.44
12763;BME280;6445;52.490;13.378;2022-07-29T10:01:40;52906.28;;;-146.10;25.62
12763;BME280;6445;52.490;13.378;2022-07-29T10:04:05;52930.31;;;-146.10;25.31
12763;BME280;6445;52.490;13.378;2022-07-29T10:06:31;52954.31;;;-146.10;25.44
12763;BME280;6445;52.490;13.378;2022-07-29T10:09:11;53186.44;;;-146.10;23.91
12763;BME280;6445;52.490;13.378;2022-07-29T10:11:37;53100.41;;;-146.10;24.16
12763;BME280;6445;52.490;13.378;2022-07-29T10:14:03;53232.47;;;-146.10;23.71
12763;BME280;6445;52.490;13.378;2022-07-29T10:16:28;53332.53;;;-146.10;23.06
12763;BME280;6445;52.490;13.378;2022-07-29T10:19:00;53240.47;;;-146.10;23.17
12763;BME280;6445;52.490;13.378;2022-07-29T10:21:26;52912.31;;;-146.10;24.51
12763;BME280;6445;52.490;13.378;2022-07-29T10:23:52;52840.25;;;-146.10;25.18
12763;BME280;6445;52.490;13.378;2022-07-29T10:26:19;52720.22;;;-146.10;25.46
12763;BME280;6445;52.490;13.378;2022-07-29T10:28:44;52694.19;;;-146.10;25.90
12763;BME280;6445;52.490;13.378;2022-07-29T10:31:26;52734.22;;;-146.10;26.15
12763;BME280;6445;52.490;13.378;2022-07-29T10:34:08;52662.19;;;-146.10;26.38
12763;BME280;6445;52.490;13.378;2022-07-29T10:36:53;52708.22;;;-146.10;26.32
12763;BME280;6445;52.490;13.378;2022-07-29T10:39:43;52736.22;;;-146.10;26.00
12763;BME280;6445;52.490;13.378;2022-07-29T10:42:21;52718.22;;;-146.10;26.02
12763;BME280;6445;52.490;13.378;2022-07-29T10:44:49;52752.22;;;-146.10;26.10
12763;BME280;6445;52.490;13.378;2022-07-29T10:47:22;52818.25;;;-146.10;25.34
12763;BME280;6445;52.490;13.378;2022-07-29T10:50:05;52744.22;;;-146.10;25.50
12763;BME280;6445;52.490;13.378;2022-07-29T10:55:37;52722.22;;;-146.10;25.93
12763;BME280;6445;52.490;13.378;2022-07-29T10:58:19;52730.22;;;-146.10;26.13
12763;BME280;6445;52.490;13.378;2022-07-29T11:00:47;52648.19;;;-146.10;26.53
12763;BME280;6445;52.490;13.378;2022-07-29T11:03:43;52652.19;;;-146.10;26.57
12763;BME280;6445;52.490;13.378;2022-07-29T11:06:12;52638.19;;;-146.10;26.74
12763;BME280;6445;52.490;13.378;2022-07-29T11:08:37;52722.22;;;-146.10;26.07
12763;BME280;6445;52.490;13.378;2022-07-29T11:16:09;52662.19;;;-146.10;26.58
12763;BME280;6445;52.490;13.378;2022-07-29T11:18:34;52678.19;;;-146.10;26.84
12763;BME280;6445;52.490;13.378;2022-07-29T11:20:59;52742.22;;;-146.10;26.20
12763;BME280;6445;52.490;13.378;2022-07-29T11:23:27;52912.31;;;-146.10;25.32
12763;BME280;6445;52.490;13.378;2022-07-29T11:28:54;52882.28;;;-146.10;25.21
12763;BME280;6445;52.490;13.378;2022-07-29T11:31:46;52852.28;;;-146.10;25.27
12763;BME280;6445;52.490;13.378;2022-07-29T11:47:40;52990.34;;;-146.10;24.60
12763;BME280;6445;52.490;13.378;2022-07-29T11:50:08;52932.31;;;-146.10;24.98
12763;BME280;6445;52.490;13.378;2022-07-29T11:52:36;53002.34;;;-146.10;24.89
12763;BME280;6445;52.490;13.378;2022-07-29T11:55:09;52894.28;;;-146.10;25.44
12763;BME280;6445;52.490;13.378;2022-07-29T11:57:34;52866.28;;;-146.10;25.97
12763;BME280;6445;52.490;13.378;2022-07-29T12:00:01;52830.25;;;-146.10;26.34
12763;BME280;6445;52.490;13.378;2022-07-29T12:02:39;52844.25;;;-146.10;26.49
12763;BME280;6445;52.490;13.378;2022-07-29T12:05:07;52826.25;;;-146.10;26.58
12763;BME280;6445;52.490;13.378;2022-07-29T12:07:33;52774.22;;;-146.10;27.04
12763;BME280;6445;52.490;13.378;2022-07-29T12:09:59;52806.25;;;-146.10;26.88
12763;BME280;6445;52.490;13.378;2022-07-29T12:12:25;52762.22;;;-146.10;27.15
12763;BME280;6445;52.490;13.378;2022-07-29T12:14:50;52852.28;;;-146.10;26.51
12763;BME280;6445;52.490;13.378;2022-07-29T12:17:28;52818.25;;;-146.10;26.96
12763;BME280;6445;52.490;13.378;2022-07-29T12:19:55;52812.25;;;-146.10;27.22
12763;BME280;6445;52.490;13.378;2022-07-29T12:22:38;52806.25;;;-146.10;27.30
12763;BME280;6445;52.490;13.378;2022-07-29T12:25:07;52838.25;;;-146.10;27.24
12763;BME280;6445;52.490;13.378;2022-07-29T12:27:34;52778.25;;;-146.10;27.45
12763;BME280;6445;52.490;13.378;2022-07-29T12:30:03;52820.25;;;-146.10;27.65
12763;BME280;6445;52.490;13.378;2022-07-29T12:32:37;52816.25;;;-146.10;27.44
12763;BME280;6445;52.490;13.378;2022-07-29T12:35:18;52740.22;;;-146.10;27.73
12763;BME280;6445;52.490;13.378;2022-07-29T12:37:47;52784.25;;;-146.10;27.61
12763;BME280;6445;52.490;13.378;2022-07-29T12:40:14;52784.25;;;-146.10;27.51
12763;BME280;6445;52.490;13.378;2022-07-29T12:42:41;52878.28;;;-146.10;26.98
12763;BME280;6445;52.490;13.378;2022-07-29T12:45:06;52842.25;;;-146.10;26.97
12763;BME280;6445;52.490;13.378;2022-07-29T12:47:32;52868.28;;;-146.10;26.84
12763;BME280;6445;52.490;13.378;2022-07-29T12:50:09;52862.28;;;-146.10;26.68
12763;BME280;6445;52.490;13.378;2022-07-29T12:52:35;52834.25;;;-146.10;27.13
12763;BME280;6445;52.490;13.378;2022-07-29T12:55:02;52890.28;;;-146.10;26.81
12763;BME280;6445;52.490;13.378;2022-07-29T12:57:27;52870.28;;;-146.10;26.65
12763;BME280;6445;52.490;13.378;2022-07-29T13:00:01;52830.25;;;-146.10;26.64
12763;BME280;6445;52.490;13.378;2022-07-29T13:02:28;52716.22;;;-146.10;27.67
12763;BME280;6445;52.490;13.378;2022-07-29T13:05:00;52712.22;;;-146.10;28.05
12763;BME280;6445;52.490;13.378;2022-07-29T13:07:27;52860.28;;;-146.10;27.39
12763;BME280;6445;52.490;13.378;2022-07-29T13:09:54;52840.25;;;-146.10;27.27
12763;BME280;6445;52.490;13.378;2022-07-29T13:12:34;53008.34;;;-146.10;25.99
12763;BME280;6445;52.490;13.378;2022-07-29T13:14:59;52928.31;;;-146.10;26.21
12763;BME280;6445;52.490;13.378;2022-07-29T13:17:25;52842.25;;;-146.10;27.28
12763;BME280;6445;52.490;13.378;2022-07-29T13:20:05;52916.31;;;-146.10;26.66